Weather at Aviosuperficie "Il Nido delle Acquile"

Public forecast

Using degrees Celsius for public forecast. Weather courtesy of forecast.io.

Closest aviation weather report (METAR) to Aviosuperficie "Il Nido delle Acquile"

Closest report is Bari Karol Wojtyła Airport, 17.0 nm (31.5 km) NE.

2024/05/22 19:50 (retrieved 29 minutes ago)

LIBD 221950Z 19004KT CAVOK 18/12 Q1014

Closest aviation forecast (TAF) to Aviosuperficie "Il Nido delle Acquile"

Closest forecast is Bari Karol Wojtyła Airport, 17.0 nm (31.5 km) NE.

2024/05/22 18:00 (retrieved 2 hours ago)

TAF LIBD 221700Z 2218/2318 VRB05KT CAVOK BECMG 2302/2304 26010KT BECMG 2309/2311 01012KT